Time;durP1;ratioP1;P1;durP2;ratioP2;P2;SDS_P1;SDS_P2;PMS_P1;PMS_P2;Temp;Humidity;BMP_temperature;BMP_pressure;BME280_temperature;BME280_humidity;BME280_pressure;Samples;Min_cycle;Max_cycle;Signal;HPM_P1;HPM_P2
2023/07/10 00:02:09;;;;;;;;;13.25;10.50;;;;;22.59;49.14;101526.16;5081019;28;45299;-68
2023/07/10 00:04:34;;;;;;;;;23.50;17.00;;;;;22.56;49.09;101527.22;5071230;28;45248;-68
2023/07/10 00:06:59;;;;;;;;;12.00;9.00;;;;;22.55;48.93;101533.50;5079183;28;65445;-68
2023/07/10 00:09:25;;;;;;;;;7.75;7.00;;;;;22.50;49.08;101532.09;5080994;27;67840;-68
2023/07/10 00:11:50;;;;;;;;;9.50;7.50;;;;;22.49;49.02;101536.59;5072137;27;45652;-68
2023/07/10 00:14:21;;;;;;;;;9.25;8.00;;;;;22.49;49.04;101539.25;5081006;28;56028;-68
2023/07/10 00:16:47;;;;;;;;;4.75;3.25;;;;;22.49;49.11;101541.09;5062611;28;48373;-67
2023/07/10 00:19:14;;;;;;;;;10.00;6.25;;;;;22.49;49.32;101535.75;5081292;28;45659;-67
2023/07/10 00:21:40;;;;;;;;;32.75;28.50;;;;;22.49;49.25;101541.09;5080138;28;45249;-68
2023/07/10 00:24:05;;;;;;;;;11.75;8.00;;;;;22.44;48.70;101540.53;5082630;27;45207;-68
2023/07/10 00:26:31;;;;;;;;;7.75;5.25;;;;;22.45;49.37;101544.88;5071539;28;46219;-68
2023/07/10 00:28:58;;;;;;;;;7.25;5.00;;;;;22.42;49.12;101547.78;5081302;28;45338;-67
2023/07/10 00:31:27;;;;;;;;;9.00;5.50;;;;;22.41;48.72;101544.22;5075426;27;45447;-68
2023/07/10 00:33:53;;;;;;;;;5.00;5.00;;;;;22.36;49.04;101538.31;5081168;28;45453;-68
2023/07/10 00:36:40;;;;;;;;;5.25;5.25;;;;;22.33;49.01;101543.88;5075137;28;45462;-67
2023/07/10 00:39:24;;;;;;;;;9.75;7.75;;;;;22.32;49.25;101544.81;5074469;28;46008;-68
2023/07/10 00:41:54;;;;;;;;;4.75;4.00;;;;;22.28;49.41;101549.50;5072579;28;45366;-68
2023/07/10 00:44:23;;;;;;;;;17.50;13.25;;;;;22.26;49.59;101542.53;5080734;28;45400;-68
2023/07/10 00:46:54;;;;;;;;;8.00;8.00;;;;;22.25;48.98;101544.31;5075543;28;45291;-68
2023/07/10 00:49:28;;;;;;;;;5.75;4.50;;;;;22.23;49.37;101548.03;5080604;28;45462;-68
2023/07/10 00:52:13;;;;;;;;;8.00;5.00;;;;;22.21;49.61;101548.13;5074763;28;45382;-68
2023/07/10 00:54:41;;;;;;;;;3.00;2.00;;;;;22.17;49.40;101544.81;5078647;28;45599;-68
2023/07/10 00:57:13;;;;;;;;;3.75;3.75;;;;;22.14;49.00;101539.66;5078069;28;47012;-68
2023/07/10 00:59:40;;;;;;;;;7.75;2.00;;;;;22.11;49.40;101542.50;5078549;28;45350;-68
2023/07/10 01:02:08;;;;;;;;;7.25;3.50;;;;;22.08;49.05;101534.72;5080316;28;45584;-68
2023/07/10 01:04:45;;;;;;;;;5.25;4.25;;;;;22.07;49.20;101534.81;5080357;27;45312;-68
2023/07/10 01:07:13;;;;;;;;;3.25;3.25;;;;;22.02;49.69;101528.91;5077529;28;45903;-67
2023/07/10 01:09:46;;;;;;;;;6.50;4.75;;;;;22.04;49.48;101535.00;5060372;28;45920;-68
2023/07/10 01:12:12;;;;;;;;;1.75;0.25;;;;;22.03;49.47;101526.16;5080091;28;45256;-68
2023/07/10 01:14:37;;;;;;;;;5.75;3.75;;;;;21.99;49.76;101520.16;5078588;28;45181;-68
2023/07/10 01:17:04;;;;;;;;;3.25;3.00;;;;;21.97;50.03;101519.41;5072797;27;66497;-68
2023/07/10 01:19:31;;;;;;;;;4.00;4.00;;;;;21.97;49.49;101526.53;5079543;28;45381;-68
2023/07/10 01:21:56;;;;;;;;;7.00;4.00;;;;;21.97;49.84;101529.19;5071723;28;45521;-68
2023/07/10 01:24:21;;;;;;;;;4.75;3.75;;;;;21.97;49.75;101524.75;5079296;28;73278;-68
2023/07/10 01:26:47;;;;;;;;;3.00;3.00;;;;;21.94;49.82;101519.59;5072997;28;50908;-68
2023/07/10 01:29:21;;;;;;;;;2.50;2.50;;;;;21.98;49.97;101528.25;5079478;28;67013;-68
2023/07/10 01:31:46;;;;;;;;;4.50;2.25;;;;;21.97;49.83;101530.06;5053027;28;45352;-68
2023/07/10 01:34:12;;;;;;;;;4.25;3.00;;;;;21.96;49.86;101532.84;5088446;27;45483;-67
2023/07/10 01:36:40;;;;;;;;;4.25;4.25;;;;;21.92;50.01;101532.16;5072168;28;69627;-68
2023/07/10 01:39:28;;;;;;;;;2.25;2.25;;;;;21.90;49.79;101533.19;5062307;28;45639;-68
2023/07/10 01:41:53;;;;;;;;;6.25;3.25;;;;;21.87;49.52;101531.59;5074005;28;45493;-68
2023/07/10 01:44:26;;;;;;;;;4.00;3.25;;;;;21.86;50.05;101523.69;5079712;28;47244;-68
2023/07/10 01:46:52;;;;;;;;;6.25;2.75;;;;;21.83;50.00;101527.38;5074551;28;45387;-68
2023/07/10 01:49:19;;;;;;;;;3.00;2.00;;;;;21.86;50.19;101540.53;5079892;28;45438;-68
2023/07/10 01:51:45;;;;;;;;;3.00;3.00;;;;;21.87;50.27;101538.69;5072652;28;45434;-68
2023/07/10 01:54:12;;;;;;;;;7.00;3.75;;;;;21.85;50.01;101536.16;5080043;28;66405;-68
2023/07/10 01:56:37;;;;;;;;;4.50;3.00;;;;;21.86;50.13;101539.69;5072009;28;47309;-67
2023/07/10 01:59:02;;;;;;;;;3.50;3.50;;;;;21.87;50.37;101541.38;5078855;28;59667;-67
2023/07/10 02:01:28;;;;;;;;;5.50;3.25;;;;;21.85;49.99;101532.63;5074393;28;64725;-67
2023/07/10 02:03:53;;;;;;;;;7.50;3.00;;;;;21.86;50.40;101545.84;5079324;27;45166;-67
2023/07/10 02:06:19;;;;;;;;;5.50;4.00;;;;;21.86;50.47;101537.00;5072677;28;46207;-67
2023/07/10 02:08:44;;;;;;;;;4.50;3.00;;;;;21.84;50.06;101537.09;5079166;28;45239;-67
2023/07/10 02:11:11;;;;;;;;;4.50;4.50;;;;;21.84;50.74;101541.59;5070509;28;62087;-67
2023/07/10 02:13:37;;;;;;;;;6.00;4.00;;;;;21.79;50.21;101534.72;5076854;28;45398;-67
2023/07/10 02:16:04;;;;;;;;;4.50;4.50;;;;;21.80;50.54;101548.91;5072576;27;70851;-67
2023/07/10 02:18:29;;;;;;;;;8.00;5.75;;;;;21.76;51.06;101540.25;5077211;28;45358;-67
2023/07/10 02:20:55;;;;;;;;;3.75;3.00;;;;;21.75;51.03;101527.88;5078552;28;45465;-67
2023/07/10 02:23:21;;;;;;;;;7.75;5.00;;;;;21.77;50.86;101541.94;5078161;28;71695;-67
2023/07/10 02:25:46;;;;;;;;;7.25;5.25;;;;;21.74;50.70;101538.63;5072682;28;45459;-67
2023/07/10 02:28:12;;;;;;;;;5.00;4.25;;;;;21.71;50.86;101536.13;5076333;28;45327;-68
2023/07/10 02:30:38;;;;;;;;;5.00;4.00;;;;;21.70;50.81;101542.44;5072031;28;60029;-67
2023/07/10 02:33:04;;;;;;;;;6.25;5.00;;;;;21.67;51.15;101545.28;5058689;28;45363;-67
2023/07/10 02:35:29;;;;;;;;;5.00;5.00;;;;;21.66;50.78;101543.56;5064064;28;46738;-67
2023/07/10 02:37:54;;;;;;;;;7.00;5.25;;;;;21.62;51.51;101548.22;5079051;28;45177;-67
2023/07/10 02:40:20;;;;;;;;;5.50;4.25;;;;;21.63;50.88;101543.75;5072578;28;67537;-67
2023/07/10 02:42:45;;;;;;;;;5.00;4.00;;;;;21.61;51.15;101555.34;5074680;28;66794;-67
2023/07/10 02:45:11;;;;;;;;;4.00;3.00;;;;;21.57;51.06;101547.66;5072888;27;67541;-67
2023/07/10 02:47:37;;;;;;;;;3.25;2.50;;;;;21.56;51.14;101554.75;5075833;28;45799;-67
2023/07/10 02:50:02;;;;;;;;;4.00;3.75;;;;;21.52;51.58;101555.06;5075112;28;63218;-67
2023/07/10 02:52:27;;;;;;;;;5.00;3.00;;;;;21.52;51.11;101557.72;5053722;28;49522;-67
2023/07/10 02:54:53;;;;;;;;;4.50;4.00;;;;;21.54;51.12;101566.47;5077368;27;67043;-67
2023/07/10 02:57:18;;;;;;;;;4.00;4.00;;;;;21.50;50.96;101556.97;5077694;28;56352;-68
2023/07/10 02:59:43;;;;;;;;;4.50;4.00;;;;;21.51;51.57;101558.66;5077489;27;56057;-67
2023/07/10 03:02:09;;;;;;;;;6.00;4.00;;;;;21.48;51.57;101562.38;5077804;28;45321;-67
2023/07/10 03:04:34;;;;;;;;;3.75;3.75;;;;;21.48;51.40;101562.38;5077172;28;50596;-68
2023/07/10 03:06:59;;;;;;;;;5.50;4.00;;;;;21.48;51.76;101559.72;5073634;28;70284;-67
2023/07/10 03:09:25;;;;;;;;;3.00;3.00;;;;;21.50;51.92;101567.63;5078826;27;64729;-67
2023/07/10 03:11:50;;;;;;;;;6.00;3.00;;;;;21.50;51.53;101570.28;5068511;27;65207;-68
2023/07/10 03:14:15;;;;;;;;;2.00;2.00;;;;;21.46;51.34;101564.28;5074403;28;71071;-68
2023/07/10 03:16:41;;;;;;;;;3.50;3.50;;;;;21.48;51.52;101561.50;5067789;28;45395;-67
2023/07/10 03:19:06;;;;;;;;;6.75;3.00;;;;;21.48;51.60;101564.16;5080790;28;45586;-67
2023/07/10 03:21:31;;;;;;;;;5.00;4.75;;;;;21.49;51.50;101569.41;5075320;28;47763;-67
2023/07/10 03:23:57;;;;;;;;;6.75;4.00;;;;;21.47;52.45;101570.44;5071067;28;47032;-67
2023/07/10 03:26:22;;;;;;;;;6.00;4.25;;;;;21.46;51.71;101571.38;5074125;27;70034;-67
2023/07/10 03:29:01;;;;;;;;;5.00;4.25;;;;;21.45;52.11;101572.31;5071786;28;57384;-67
2023/07/10 03:31:27;;;;;;;;;6.00;6.00;;;;;21.42;52.31;101571.56;5075165;28;45241;-67
2023/07/10 03:33:52;;;;;;;;;5.50;5.50;;;;;21.42;51.45;101574.22;5081074;28;66871;-68
2023/07/10 03:36:17;;;;;;;;;8.25;4.50;;;;;21.43;52.20;101580.41;5073995;28;72841;-67
2023/07/10 03:38:42;;;;;;;;;5.00;4.00;;;;;21.41;51.99;101576.97;5082264;27;67569;-67
2023/07/10 03:41:08;;;;;;;;;5.50;4.00;;;;;21.38;52.14;101579.81;5075279;27;69252;-67
2023/07/10 03:43:33;;;;;;;;;4.00;4.00;;;;;21.37;52.36;101578.09;5080893;28;64516;-67
2023/07/10 03:45:59;;;;;;;;;5.00;4.00;;;;;21.36;52.05;101579.91;5074771;28;45468;-67
2023/07/10 03:48:24;;;;;;;;;7.25;5.00;;;;;21.35;52.47;101583.50;5081859;28;45385;-68
2023/07/10 03:50:50;;;;;;;;;8.50;5.00;;;;;21.35;52.26;101582.66;5076232;28;45732;-67
2023/07/10 03:53:15;;;;;;;;;4.50;4.00;;;;;21.34;52.46;101580.94;5081516;28;45448;-68
2023/07/10 03:55:48;;;;;;;;;9.25;5.25;;;;;21.35;52.32;101587.97;5075832;28;49604;-67
2023/07/10 03:58:19;;;;;;;;;9.25;5.25;;;;;21.36;52.34;101595.03;5081769;28;45421;-67
2023/07/10 04:00:44;;;;;;;;;6.00;6.00;;;;;21.38;52.52;101590.47;5059797;28;45569;-67
2023/07/10 04:03:09;;;;;;;;;8.50;6.00;;;;;21.42;52.18;101597.31;5077993;28;72042;-67
2023/07/10 04:05:35;;;;;;;;;4.75;3.75;;;;;21.43;52.57;101599.03;5077903;28;67929;-67
2023/07/10 04:08:00;;;;;;;;;9.00;7.25;;;;;21.43;52.32;101594.56;5080199;28;59005;-67
2023/07/10 04:10:25;;;;;;;;;9.00;7.00;;;;;21.47;52.19;101595.25;5074834;28;73236;-67
2023/07/10 04:12:50;;;;;;;;;9.50;6.25;;;;;21.48;52.36;101588.13;5068253;28;57700;-67
2023/07/10 04:15:16;;;;;;;;;11.50;5.25;;;;;21.48;52.50;101583.69;5075664;28;65635;-67
2023/07/10 04:17:41;;;;;;;;;8.50;7.00;;;;;21.52;52.21;101597.66;5078813;28;55011;-68
2023/07/10 04:20:07;;;;;;;;;8.00;5.50;;;;;21.50;52.59;101600.41;5078005;28;73402;-67
2023/07/10 04:22:32;;;;;;;;;10.75;5.25;;;;;21.54;52.23;101609.09;5078963;28;46221;-67
2023/07/10 04:25:05;;;;;;;;;10.25;8.00;;;;;21.54;52.59;101611.75;5079011;28;45227;-67
2023/07/10 04:27:31;;;;;;;;;14.50;7.00;;;;;21.54;52.71;101619.75;5068447;28;45464;-67
2023/07/10 04:29:56;;;;;;;;;11.00;9.25;;;;;21.54;52.17;101617.06;5061731;28;45308;-68
2023/07/10 04:32:22;;;;;;;;;13.25;9.25;;;;;21.52;52.24;101625.16;5077359;27;46062;-67
2023/07/10 04:34:47;;;;;;;;;12.50;9.00;;;;;21.48;52.48;101614.75;5080008;27;45422;-67
2023/07/10 04:37:13;;;;;;;;;12.00;8.00;;;;;21.49;52.27;101616.47;5063887;28;45496;-67
2023/07/10 04:39:39;;;;;;;;;6.25;5.50;;;;;21.50;52.26;101629.72;5079153;28;45488;-67
2023/07/10 04:42:05;;;;;;;;;12.00;8.50;;;;;21.50;52.55;101627.06;5069826;28;46324;-68
2023/07/10 04:44:30;;;;;;;;;10.00;7.50;;;;;21.51;52.82;101631.41;5079493;28;45301;-67
2023/07/10 04:46:55;;;;;;;;;6.75;6.75;;;;;21.48;53.19;101623.63;5080566;28;45457;-67
2023/07/10 04:49:21;;;;;;;;;9.00;6.00;;;;;21.48;53.98;101631.63;5076430;28;70125;-67
2023/07/10 04:51:46;;;;;;;;;8.50;7.75;;;;;21.48;53.84;101633.41;5076622;28;62384;-67
2023/07/10 04:54:12;;;;;;;;;12.00;8.25;;;;;21.45;53.90;101631.75;5078761;28;45312;-67
2023/07/10 04:56:37;;;;;;;;;18.50;13.75;;;;;21.43;54.70;101639.84;5072153;28;61628;-68
2023/07/10 04:59:02;;;;;;;;;31.75;23.75;;;;;21.45;54.41;101631.75;5079620;28;67763;-68
2023/07/10 05:01:32;;;;;;;;;41.75;30.00;;;;;21.45;55.17;101634.41;5063103;28;46964;-67
2023/07/10 05:03:58;;;;;;;;;30.50;23.00;;;;;21.47;54.77;101637.03;5079032;28;45189;-68
2023/07/10 05:06:24;;;;;;;;;49.25;37.50;;;;;21.45;54.38;101630.91;5079131;27;45540;-67
2023/07/10 05:08:54;;;;;;;;;49.50;35.00;;;;;21.45;54.84;101637.09;5080970;27;45279;-67
2023/07/10 05:11:21;;;;;;;;;46.75;35.00;;;;;21.45;55.72;101631.75;5053833;28;48041;-67
2023/07/10 05:13:46;;;;;;;;;47.50;35.50;;;;;21.43;55.39;101626.50;5079015;28;45243;-68
2023/07/10 05:16:13;;;;;;;;;53.75;39.25;;;;;21.43;55.85;101620.34;5072635;27;66752;-67
2023/07/10 05:18:39;;;;;;;;;47.50;37.00;;;;;21.48;56.17;101631.63;5079159;28;45379;-67
2023/07/10 05:21:04;;;;;;;;;35.25;29.50;;;;;21.51;56.09;101627.91;5078498;28;71583;-68
2023/07/10 05:23:30;;;;;;;;;35.25;28.25;;;;;21.57;55.17;101632.88;5079996;28;45371;-68
2023/07/10 05:26:01;;;;;;;;;30.00;23.75;;;;;21.61;55.11;101640.59;5070495;28;45263;-68
2023/07/10 05:28:27;;;;;;;;;35.50;28.50;;;;;21.65;55.85;101633.25;5080692;28;45525;-68
2023/07/10 05:30:53;;;;;;;;;30.25;26.25;;;;;21.68;55.97;101633.09;5075843;28;45548;-67
2023/07/10 05:33:19;;;;;;;;;33.75;28.00;;;;;21.76;55.70;101636.16;5062666;28;45356;-67
2023/07/10 05:35:51;;;;;;;;;15.50;12.25;;;;;21.81;55.18;101630.53;5074684;28;45568;-67
2023/07/10 05:38:16;;;;;;;;;7.75;7.75;;;;;21.84;54.66;101625.03;5074264;27;45224;-67
2023/07/10 05:40:41;;;;;;;;;6.75;5.50;;;;;21.90;54.46;101624.69;5071867;28;56503;-68
2023/07/10 05:43:07;;;;;;;;;9.00;4.25;;;;;21.94;54.31;101622.69;5079776;28;45318;-67
2023/07/10 05:45:32;;;;;;;;;3.50;3.00;;;;;22.01;53.90;101629.34;5073621;27;69929;-67
2023/07/10 05:47:57;;;;;;;;;3.00;1.75;;;;;22.04;54.31;101630.97;5078873;28;72306;-67
2023/07/10 05:50:23;;;;;;;;;5.50;4.00;;;;;22.12;54.15;101639.34;5073256;28;71978;-67
2023/07/10 05:52:48;;;;;;;;;6.50;4.00;;;;;22.14;53.94;101629.44;5057701;28;68684;-67
2023/07/10 05:55:13;;;;;;;;;3.75;3.25;;;;;22.17;53.84;101624.78;5074188;28;45395;-67
2023/07/10 05:57:39;;;;;;;;;6.00;4.00;;;;;22.24;53.81;101632.41;5075934;28;45328;-67
2023/07/10 06:00:05;;;;;;;;;5.75;3.25;;;;;22.27;53.76;101633.09;5070125;27;45494;-67
2023/07/10 06:02:30;;;;;;;;;5.00;4.50;;;;;22.31;53.32;101628.41;5077955;28;45326;-67
2023/07/10 06:04:56;;;;;;;;;4.25;4.25;;;;;22.37;53.49;101628.06;5076104;28;63314;-67
2023/07/10 06:07:21;;;;;;;;;3.25;3.25;;;;;22.44;53.21;101628.53;5071250;28;45588;-67
2023/07/10 06:09:46;;;;;;;;;6.00;3.00;;;;;22.50;53.64;101625.47;5077075;28;54902;-67
2023/07/10 06:12:12;;;;;;;;;5.75;3.75;;;;;22.56;53.19;101631.28;5071560;27;54983;-68
2023/07/10 06:14:37;;;;;;;;;7.50;5.75;;;;;22.60;53.17;101637.28;5079036;27;59880;-67
2023/07/10 06:17:02;;;;;;;;;3.25;3.25;;;;;22.62;52.72;101613.16;5067758;28;45349;-67
2023/07/10 06:19:28;;;;;;;;;4.75;4.75;;;;;22.69;52.71;101628.69;5071141;28;47365;-67
2023/07/10 06:22:05;;;;;;;;;3.00;2.00;;;;;22.76;52.81;101634.47;5078268;28;54690;-67
2023/07/10 06:24:30;;;;;;;;;4.25;3.25;;;;;22.81;52.44;101636.88;5079989;27;45239;-67
2023/07/10 06:26:56;;;;;;;;;3.75;3.75;;;;;22.83;52.29;101629.63;5072184;28;64533;-67
2023/07/10 06:29:21;;;;;;;;;3.25;3.25;;;;;22.90;52.12;101630.94;5078459;28;67890;-67
2023/07/10 06:31:46;;;;;;;;;4.75;2.25;;;;;22.91;51.98;101627.28;5071379;28;68977;-67
2023/07/10 06:34:11;;;;;;;;;4.25;2.25;;;;;22.98;51.51;101633.94;5078554;28;61928;-68
2023/07/10 06:36:37;;;;;;;;;5.25;1.25;;;;;23.03;51.94;101631.81;5071714;28;60393;-67
2023/07/10 06:39:04;;;;;;;;;3.50;2.25;;;;;23.07;51.71;101633.41;5078252;28;68215;-67
2023/07/10 06:41:29;;;;;;;;;4.00;2.00;;;;;23.13;51.25;101627.63;5073288;27;45361;-68
2023/07/10 06:43:54;;;;;;;;;3.25;2.25;;;;;23.17;51.02;101628.28;5080413;27;45334;-67
2023/07/10 06:46:22;;;;;;;;;5.00;2.25;;;;;23.21;50.79;101627.13;5077163;28;64106;-67
2023/07/10 06:48:47;;;;;;;;;2.25;2.25;;;;;23.25;50.73;101627.81;5078189;28;47351;-67
2023/07/10 06:51:12;;;;;;;;;3.25;2.25;;;;;23.26;50.45;101625.00;5072774;28;45440;-68
2023/07/10 06:53:38;;;;;;;;;5.00;2.25;;;;;23.30;50.31;101629.19;5078308;27;60402;-67
2023/07/10 06:56:03;;;;;;;;;2.00;1.75;;;;;23.33;50.14;101621.94;5052756;28;59586;-68
2023/07/10 06:58:30;;;;;;;;;5.25;2.75;;;;;23.42;50.31;101629.31;5071325;28;46021;-68
2023/07/10 07:00:55;;;;;;;;;3.25;2.00;;;;;23.46;50.41;101620.13;5075231;28;45394;-67
2023/07/10 07:03:21;;;;;;;;;1.50;1.50;;;;;23.49;49.66;101618.13;5078885;28;45334;-68
2023/07/10 07:05:47;;;;;;;;;3.50;2.25;;;;;23.52;49.77;101622.41;5077890;28;45266;-67
2023/07/10 07:08:13;;;;;;;;;2.50;2.00;;;;;23.52;49.68;101618.91;5078695;28;45283;-67
2023/07/10 07:10:40;;;;;;;;;5.25;3.25;;;;;23.58;50.03;101627.31;5067467;28;45576;-67
2023/07/10 07:13:05;;;;;;;;;2.00;2.00;;;;;23.60;49.90;101628.09;5073361;28;45475;-68
2023/07/10 07:15:31;;;;;;;;;5.75;1.75;;;;;23.63;49.45;101629.69;5056533;28;68038;-67
2023/07/10 07:17:56;;;;;;;;;4.50;1.50;;;;;23.68;49.29;101624.91;5073848;28;74378;-67
2023/07/10 07:20:21;;;;;;;;;3.00;2.25;;;;;23.73;49.52;101630.78;5077259;28;45479;-67
2023/07/10 07:22:47;;;;;;;;;4.50;4.00;;;;;23.77;49.28;101623.41;5073805;27;45266;-68
2023/07/10 07:25:12;;;;;;;;;6.00;5.25;;;;;23.81;49.29;101619.59;5075256;27;59968;-67
2023/07/10 07:27:37;;;;;;;;;4.00;3.00;;;;;23.88;49.03;101626.22;5076524;28;45329;-67
2023/07/10 07:30:05;;;;;;;;;2.25;2.25;;;;;23.94;49.04;101623.16;5076582;28;45421;-67
2023/07/10 07:32:31;;;;;;;;;2.75;2.25;;;;;23.97;48.76;101620.22;5078388;27;45331;-67
2023/07/10 07:34:56;;;;;;;;;2.75;2.75;;;;;24.06;48.92;101624.09;5076547;28;45569;-67
2023/07/10 07:37:21;;;;;;;;;4.25;3.75;;;;;24.09;48.49;101618.53;5074379;27;58080;-68
2023/07/10 07:39:47;;;;;;;;;1.75;1.00;;;;;24.12;48.37;101620.16;5076236;28;45391;-67
2023/07/10 07:42:12;;;;;;;;;3.00;2.25;;;;;24.18;48.08;101630.41;5078052;28;45799;-67
2023/07/10 07:44:38;;;;;;;;;2.25;1.50;;;;;24.22;47.50;101621.19;5077261;28;45496;-67
2023/07/10 07:47:03;;;;;;;;;3.00;2.25;;;;;24.27;47.28;101624.41;5073721;28;47082;-67
2023/07/10 07:49:28;;;;;;;;;1.50;1.50;;;;;24.31;47.65;101623.25;5077984;28;45362;-67
2023/07/10 07:51:54;;;;;;;;;4.00;2.00;;;;;24.36;47.61;101610.34;5068809;28;45512;-67
2023/07/10 07:54:19;;;;;;;;;5.00;4.00;;;;;24.44;47.09;101616.03;5075887;28;60163;-68
2023/07/10 07:56:45;;;;;;;;;4.50;1.75;;;;;24.47;47.17;101611.41;5071858;27;70602;-67
2023/07/10 07:59:10;;;;;;;;;1.25;1.25;;;;;24.52;46.83;101609.25;5075857;28;45436;-67
2023/07/10 08:01:36;;;;;;;;;2.75;0.50;;;;;24.57;45.57;101607.16;5069560;28;66702;-68
2023/07/10 08:04:03;;;;;;;;;3.50;0.00;;;;;24.58;44.71;101603.53;5061041;28;49137;-67
2023/07/10 08:06:30;;;;;;;;;2.25;0.25;;;;;24.59;44.22;101605.22;5071488;28;46052;-68
2023/07/10 08:08:56;;;;;;;;;1.00;0.00;;;;;24.65;45.25;101610.13;5063574;28;46170;-67
2023/07/10 08:11:21;;;;;;;;;2.00;0.25;;;;;24.68;44.62;101606.38;5072494;28;45398;-68
2023/07/10 08:13:47;;;;;;;;;0.00;0.00;;;;;24.72;44.45;101592.66;5080306;28;45181;-68
2023/07/10 08:16:12;;;;;;;;;0.25;0.25;;;;;24.80;43.97;101597.44;5075901;27;45402;-68
2023/07/10 08:18:40;;;;;;;;;0.50;0.00;;;;;24.89;43.27;101603.94;5081887;27;57837;-68
2023/07/10 08:21:08;;;;;;;;;0.25;0.25;;;;;24.92;42.03;101599.22;5056853;28;45308;-68
2023/07/10 08:23:33;;;;;;;;;0.50;0.00;;;;;24.94;42.97;101591.06;5080348;28;45461;-68
2023/07/10 08:25:59;;;;;;;;;5.25;2.00;;;;;24.99;42.80;101599.63;5070776;28;45564;-68
2023/07/10 08:28:24;;;;;;;;;0.75;0.75;;;;;25.01;42.04;101598.50;5080416;28;45347;-68
2023/07/10 08:30:50;;;;;;;;;3.00;1.75;;;;;25.05;42.40;101606.34;5074078;28;57810;-67
2023/07/10 08:33:15;;;;;;;;;3.75;0.50;;;;;25.08;42.46;101606.13;5080301;28;59080;-68
2023/07/10 08:35:41;;;;;;;;;4.00;1.00;;;;;25.13;42.74;101598.59;5075589;27;45539;-68
2023/07/10 08:38:06;;;;;;;;;3.00;0.25;;;;;25.19;42.70;101595.44;5081929;27;49060;-68
2023/07/10 08:40:33;;;;;;;;;44.50;35.00;;;;;25.30;42.30;101600.00;5057499;28;45474;-68
2023/07/10 08:43:03;;;;;;;;;15.75;13.25;;;;;25.37;42.74;101609.28;5081823;28;45224;-68
2023/07/10 08:45:32;;;;;;;;;3.00;2.25;;;;;25.42;42.58;101603.59;5076494;28;47076;-68
2023/07/10 08:48:09;;;;;;;;;0.00;0.00;;;;;25.42;42.39;101603.59;5050404;28;45190;-68
2023/07/10 08:50:36;;;;;;;;;2.25;0.00;;;;;25.43;41.71;101599.94;5053977;28;45843;-68
2023/07/10 08:53:18;;;;;;;;;0.00;0.00;;;;;25.45;41.25;101600.69;5078136;28;73335;-68
2023/07/10 08:55:43;;;;;;;;;1.00;1.00;;;;;25.51;41.47;101602.88;5059739;28;47169;-68
2023/07/10 08:58:18;;;;;;;;;3.33;0.00;;;;;25.56;40.91;101601.56;5080389;27;45382;-68
2023/07/10 09:00:45;;;;;;;;;1.00;0.00;;;;;25.62;41.15;101599.38;5061235;28;45450;-68
2023/07/10 09:03:34;;;;;;;;;1.75;1.00;;;;;25.65;41.29;101596.47;5080542;28;45470;-68
2023/07/10 09:06:01;;;;;;;;;2.25;0.00;;;;;25.72;39.17;101595.88;5068309;28;46449;-68
2023/07/10 09:08:28;;;;;;;;;0.50;0.25;;;;;25.73;40.41;101586.84;5073992;28;45327;-68
2023/07/10 09:10:56;;;;;;;;;2.25;0.25;;;;;25.76;40.15;101594.66;5076020;28;63033;-68
2023/07/10 09:13:42;;;;;;;;;2.00;0.25;;;;;25.81;40.50;101590.78;5080378;28;45381;-68
2023/07/10 09:16:14;;;;;;;;;3.00;0.00;;;;;25.87;39.71;101592.94;5077302;28;46906;-68
2023/07/10 09:18:56;;;;;;;;;1.50;0.00;;;;;25.87;39.91;101601.00;5081453;28;45341;-66
2023/07/10 09:21:27;;;;;;;;;1.25;0.00;;;;;25.87;40.26;101596.50;5071535;28;45315;-67
2023/07/10 09:23:53;;;;;;;;;1.00;0.25;;;;;25.94;39.38;101591.53;5069824;27;45627;-67
2023/07/10 09:26:21;;;;;;;;;0.75;0.50;;;;;25.97;39.64;101591.28;5071558;28;46156;-67
2023/07/10 09:29:11;;;;;;;;;2.00;1.00;;;;;26.04;38.10;101594.34;5081397;27;45248;-67
2023/07/10 09:31:48;;;;;;;;;4.25;0.00;;;;;26.08;39.20;101593.13;5074531;28;45399;-67
2023/07/10 09:34:14;;;;;;;;;0.00;0.00;;;;;26.09;38.92;101598.38;5090646;27;45448;-68
2023/07/10 09:36:39;;;;;;;;;2.25;1.00;;;;;26.14;38.52;101595.34;5079162;28;48111;-68
2023/07/10 09:39:05;;;;;;;;;2.25;0.50;;;;;26.13;38.15;101578.41;5081233;27;45224;-67
2023/07/10 09:41:31;;;;;;;;;2.00;0.00;;;;;26.22;38.76;101581.31;5078863;28;45394;-68
2023/07/10 09:44:00;;;;;;;;;4.25;0.00;;;;;26.27;38.80;101576.41;5079100;28;65872;-67
2023/07/10 09:46:34;;;;;;;;;0.00;0.00;;;;;26.34;37.96;101589.22;5069660;28;46539;-67
2023/07/10 09:49:03;;;;;;;;;2.00;0.00;;;;;26.40;37.90;101590.56;5074563;28;45434;-68
2023/07/10 09:51:29;;;;;;;;;1.00;0.00;;;;;26.44;38.63;101594.72;5079261;28;45326;-67
2023/07/10 09:54:04;;;;;;;;;0.25;0.00;;;;;26.47;37.33;101590.91;5062700;28;45308;-67
2023/07/10 09:56:37;;;;;;;;;0.00;0.00;;;;;26.53;37.44;101593.13;5068346;28;48067;-68
2023/07/10 09:59:21;;;;;;;;;1.00;0.00;;;;;26.57;37.78;101582.97;5079448;28;45477;-66
2023/07/10 10:01:47;;;;;;;;;0.00;0.00;;;;;26.61;37.50;101589.78;5073332;28;45330;-68
2023/07/10 10:04:23;;;;;;;;;1.50;0.00;;;;;26.59;36.99;101586.38;5079570;28;45632;-68
2023/07/10 10:07:04;;;;;;;;;1.00;1.00;;;;;26.61;36.18;101590.66;5069562;28;45472;-68
2023/07/10 10:09:30;;;;;;;;;4.00;0.50;;;;;26.62;35.96;101581.66;5079538;28;45474;-68
2023/07/10 10:12:02;;;;;;;;;1.25;0.25;;;;;26.65;36.57;101586.78;5070938;27;45944;-67
2023/07/10 10:14:39;;;;;;;;;1.00;0.00;;;;;26.72;37.02;101589.81;5062654;28;45424;-66
2023/07/10 10:17:07;;;;;;;;;0.00;0.00;;;;;26.76;37.21;101591.25;5070219;28;45385;-67
2023/07/10 10:19:36;;;;;;;;;1.50;1.00;;;;;26.79;36.77;101582.97;5071937;28;45650;-67
2023/07/10 10:22:12;;;;;;;;;5.00;2.00;;;;;26.83;36.46;101579.03;5078784;28;45396;-67
2023/07/10 10:24:38;;;;;;;;;3.50;1.25;;;;;26.87;36.38;101583.16;5078344;28;45314;-67
2023/07/10 10:27:22;;;;;;;;;5.00;1.00;;;;;26.96;36.19;101580.69;5078164;28;45402;-67
2023/07/10 10:30:05;;;;;;;;;26.00;21.00;;;;;27.02;36.72;101582.88;5078292;27;45303;-67
2023/07/10 10:32:36;;;;;;;;;18.75;15.25;;;;;27.09;36.86;101579.56;5074824;28;45394;-67
2023/07/10 10:35:20;;;;;;;;;2.00;2.00;;;;;27.16;36.65;101568.28;5078619;27;45292;-67
2023/07/10 10:37:57;;;;;;;;;4.00;1.25;;;;;27.21;36.74;101569.59;5075949;28;45462;-67
2023/07/10 10:41:10;;;;;;;;;0.25;0.25;;;;;27.26;36.11;101566.53;5073846;28;45699;-67
2023/07/10 10:43:43;;;;;;;;;1.00;0.50;;;;;27.30;36.14;101562.63;5060634;28;45497;-67
2023/07/10 10:46:31;;;;;;;;;2.50;1.25;;;;;27.36;35.85;101562.09;5073281;28;45425;-67
2023/07/10 10:49:10;;;;;;;;;4.00;3.00;;;;;27.44;35.71;101570.34;5080011;27;45350;-67
2023/07/10 10:51:47;;;;;;;;;1.00;0.00;;;;;27.46;34.88;101571.09;5073108;28;45116;-67
2023/07/10 10:54:25;;;;;;;;;3.00;0.75;;;;;27.47;35.93;101563.88;5077649;28;45314;-67
2023/07/10 10:57:01;;;;;;;;;4.75;2.50;;;;;27.53;35.51;101567.88;5056639;27;45351;-67
2023/07/10 10:59:32;;;;;;;;;1.00;0.25;;;;;27.54;35.08;101566.91;5065583;28;46692;-67
2023/07/10 11:02:39;;;;;;;;;2.00;2.00;;;;;27.57;34.03;101563.91;5075578;27;45687;-67
2023/07/10 11:06:00;;;;;;;;;0.75;0.75;;;;;27.59;35.15;101560.13;5076781;28;45311;-67
2023/07/10 11:08:40;;;;;;;;;2.00;2.00;;;;;27.64;34.47;101557.91;5072803;27;45350;-67
2023/07/10 11:11:21;;;;;;;;;10.00;8.00;;;;;27.68;34.30;101557.63;5064183;28;47025;-67
2023/07/10 11:13:47;;;;;;;;;9.00;5.50;;;;;27.68;35.03;101555.78;5077429;28;45338;-67
2023/07/10 11:16:13;;;;;;;;;8.75;2.25;;;;;27.72;33.43;101559.06;5068649;28;65065;-67
2023/07/10 11:18:38;;;;;;;;;1.75;1.50;;;;;27.70;33.09;101548.44;5074362;28;46982;-67
2023/07/10 11:21:04;;;;;;;;;1.50;0.50;;;;;27.67;33.63;101550.53;5053671;28;47112;-67
2023/07/10 11:23:49;;;;;;;;;0.75;0.50;;;;;27.67;34.59;101545.16;5078370;28;45356;-67
2023/07/10 11:26:20;;;;;;;;;6.25;2.00;;;;;27.76;33.78;101542.50;5069991;28;45468;-67
2023/07/10 11:28:56;;;;;;;;;2.00;1.00;;;;;27.84;34.11;101541.84;5058208;28;45426;-67
2023/07/10 11:31:23;;;;;;;;;2.00;1.00;;;;;27.90;34.19;101532.38;5068847;28;45511;-67